createdAt,value
2022-10-24T00:01:23.763Z,97.56
2022-10-24T00:03:52.016Z,96.79
2022-10-24T00:06:20.192Z,95.77
2022-10-24T00:08:49.763Z,95.26
2022-10-24T00:11:19.443Z,94.66
2022-10-24T00:13:46.977Z,94.66
2022-10-24T00:16:14.692Z,94.59
2022-10-24T00:18:42.386Z,95.00
2022-10-24T00:21:10.499Z,95.37
2022-10-24T00:23:38.286Z,95.57
2022-10-24T00:26:07.350Z,95.89
2022-10-24T00:28:36.750Z,96.37
2022-10-24T00:31:05.259Z,96.61
2022-10-24T00:33:33.237Z,97.01
2022-10-24T00:36:00.745Z,96.96
2022-10-24T00:38:28.268Z,96.90
2022-10-24T00:40:55.869Z,96.78
2022-10-24T00:43:26.772Z,96.75
2022-10-24T00:45:55.913Z,96.73
2022-10-24T00:48:28.009Z,96.33
2022-10-24T00:50:58.759Z,96.56
2022-10-24T00:53:27.819Z,96.88
2022-10-24T00:55:57.853Z,96.82
2022-10-24T00:58:30.421Z,96.59
2022-10-24T01:00:58.336Z,96.69
2022-10-24T01:03:26.254Z,95.63
2022-10-24T01:06:11.349Z,95.12
2022-10-24T01:08:46.976Z,94.22
2022-10-24T01:11:26.211Z,93.01
2022-10-24T01:14:03.906Z,93.02
2022-10-24T01:16:37.510Z,92.78
2022-10-24T01:19:14.615Z,92.77
2022-10-24T01:21:45.408Z,93.89
2022-10-24T01:24:33.861Z,94.58
2022-10-24T01:29:57.208Z,95.40
2022-10-24T01:32:36.129Z,95.96
2022-10-24T01:35:12.043Z,95.75
2022-10-24T01:37:45.313Z,96.25
2022-10-24T01:40:19.834Z,95.90
2022-10-24T01:42:49.731Z,95.87
2022-10-24T01:45:24.940Z,95.98
2022-10-24T01:47:56.278Z,96.44
2022-10-24T01:50:25.735Z,95.87
2022-10-24T01:52:56.228Z,95.38
2022-10-24T01:55:24.530Z,95.10
2022-10-24T01:57:51.962Z,94.45
2022-10-24T02:00:23.783Z,94.81
2022-10-24T02:02:56.726Z,94.20
2022-10-24T02:05:30.029Z,93.07
2022-10-24T02:08:03.440Z,92.33
2022-10-24T02:10:35.213Z,91.80
2022-10-24T02:13:06.345Z,91.79
2022-10-24T02:15:39.691Z,90.42
2022-10-24T02:18:07.513Z,89.96
2022-10-24T02:20:38.251Z,90.03
2022-10-24T02:23:12.842Z,89.82
2022-10-24T02:28:19.876Z,89.33
2022-10-24T02:30:53.578Z,88.39
2022-10-24T02:33:22.004Z,88.25
2022-10-24T02:35:52.506Z,87.72
2022-10-24T02:38:25.796Z,87.90
2022-10-24T02:40:54.829Z,88.27
2022-10-24T02:43:23.564Z,88.86
2022-10-24T02:45:55.277Z,88.24
2022-10-24T02:48:27.699Z,88.71
2022-10-24T02:50:55.501Z,88.69
2022-10-24T02:53:26.166Z,88.24
2022-10-24T02:55:53.968Z,87.33
2022-10-24T02:58:21.680Z,88.17
2022-10-24T03:00:49.251Z,87.95
2022-10-24T03:03:18.100Z,86.65
2022-10-24T03:05:45.578Z,86.68
2022-10-24T03:08:13.414Z,86.14
2022-10-24T03:10:41.117Z,85.56
2022-10-24T03:13:08.710Z,85.47
2022-10-24T03:15:36.227Z,85.44
2022-10-24T03:18:03.797Z,85.31
2022-10-24T03:20:32.563Z,84.19
2022-10-24T03:22:59.996Z,84.72
2022-10-24T03:25:27.534Z,84.88
2022-10-24T03:27:54.997Z,85.42
2022-10-24T03:30:22.420Z,85.79
2022-10-24T03:32:49.866Z,86.04
2022-10-24T03:35:17.556Z,85.89
2022-10-24T03:37:46.359Z,85.91
2022-10-24T03:40:13.852Z,86.37
2022-10-24T03:42:41.368Z,86.52
2022-10-24T03:45:09.822Z,86.67
2022-10-24T03:47:37.430Z,87.04
2022-10-24T03:50:05.704Z,87.16
2022-10-24T03:52:33.909Z,87.09
2022-10-24T03:55:02.683Z,87.76
2022-10-24T03:57:30.140Z,87.09
2022-10-24T03:59:57.595Z,87.60
2022-10-24T04:02:25.057Z,87.22
2022-10-24T04:04:52.514Z,87.37
2022-10-24T04:07:19.939Z,86.86
2022-10-24T04:09:47.374Z,86.68
2022-10-24T04:12:16.584Z,86.47
2022-10-24T04:14:44.066Z,85.99
2022-10-24T04:17:11.491Z,86.64
2022-10-24T04:19:38.966Z,86.42
2022-10-24T04:22:06.525Z,86.38
2022-10-24T04:24:34.029Z,86.82
2022-10-24T04:27:01.553Z,86.35
2022-10-24T04:29:30.369Z,86.83
2022-10-24T04:31:57.849Z,86.52
2022-10-24T04:34:25.556Z,86.62
2022-10-24T04:36:53.326Z,86.62
2022-10-24T04:39:20.780Z,86.86
2022-10-24T04:41:48.232Z,87.27
2022-10-24T04:44:15.719Z,87.14
2022-10-24T04:46:47.960Z,86.93
2022-10-24T04:49:18.672Z,86.35
2022-10-24T04:51:46.171Z,86.67
2022-10-24T04:54:13.641Z,86.74
2022-10-24T04:56:41.048Z,86.49
2022-10-24T04:59:08.468Z,86.25
2022-10-24T05:01:35.970Z,86.49
2022-10-24T05:04:05.129Z,86.39
2022-10-24T05:06:32.558Z,86.49
2022-10-24T05:08:59.968Z,86.42
2022-10-24T05:11:27.498Z,86.63
2022-10-24T05:13:54.948Z,86.73
2022-10-24T05:16:22.745Z,86.92
2022-10-24T05:18:50.585Z,87.34
2022-10-24T05:21:19.351Z,86.83
2022-10-24T05:23:46.875Z,86.50
2022-10-24T05:26:14.285Z,86.27
2022-10-24T05:28:41.710Z,86.83
2022-10-24T05:31:09.107Z,86.57
2022-10-24T05:33:36.568Z,86.97
2022-10-24T05:36:04.525Z,86.51
2022-10-24T05:38:33.262Z,86.89
2022-10-24T05:41:00.763Z,86.70
2022-10-24T05:43:28.166Z,86.39
2022-10-24T05:45:55.633Z,86.93
2022-10-24T05:48:23.211Z,86.81
2022-10-24T05:50:50.655Z,86.58
2022-10-24T05:53:18.063Z,87.02
2022-10-24T05:55:46.821Z,86.37
2022-10-24T05:58:14.233Z,86.50
2022-10-24T06:00:41.644Z,86.69
2022-10-24T06:03:12.119Z,86.40
2022-10-24T06:05:39.577Z,86.13
2022-10-24T06:08:06.997Z,86.09
2022-10-24T06:10:34.604Z,85.98
2022-10-24T06:13:03.453Z,86.02
2022-10-24T06:15:31.094Z,85.72
2022-10-24T06:17:58.487Z,86.36
2022-10-24T06:20:25.911Z,85.72
2022-10-24T06:22:53.304Z,85.67
2022-10-24T06:25:20.733Z,86.24
2022-10-24T06:27:48.462Z,86.27
2022-10-24T06:30:17.259Z,86.32
2022-10-24T06:32:44.952Z,86.02
2022-10-24T06:35:14.604Z,86.27
2022-10-24T06:37:44.457Z,85.81
2022-10-24T06:40:14.766Z,85.28
2022-10-24T06:42:42.167Z,85.35
2022-10-24T06:45:10.308Z,84.88
2022-10-24T06:47:39.255Z,84.96
2022-10-24T06:50:08.064Z,85.52
2022-10-24T06:52:35.513Z,85.40
2022-10-24T06:55:02.961Z,85.35
2022-10-24T06:57:30.383Z,85.65
2022-10-24T06:59:57.805Z,85.51
2022-10-24T07:02:25.441Z,85.22
2022-10-24T07:04:54.249Z,85.08
2022-10-24T07:07:22.965Z,85.21
2022-10-24T07:09:54.073Z,84.89
2022-10-24T07:12:21.734Z,85.09
2022-10-24T07:14:49.318Z,84.51
2022-10-24T07:17:18.108Z,84.36
2022-10-24T07:19:46.006Z,84.15
2022-10-24T07:22:14.762Z,84.88
2022-10-24T07:24:42.301Z,84.30
2022-10-24T07:27:09.705Z,83.99
2022-10-24T07:29:39.495Z,84.39
2022-10-24T07:32:06.935Z,84.27
2022-10-24T07:34:34.753Z,84.11
2022-10-24T07:37:04.158Z,84.05
2022-10-24T07:39:33.070Z,84.47
2022-10-24T07:42:00.482Z,84.27
2022-10-24T07:44:28.011Z,84.16
2022-10-24T07:46:55.562Z,83.50
2022-10-24T07:49:23.075Z,83.57
2022-10-24T07:51:50.486Z,83.47
2022-10-24T07:54:17.928Z,82.97
2022-10-24T07:56:46.697Z,83.01
2022-10-24T07:59:37.077Z,83.17
2022-10-24T08:02:01.459Z,82.59
2022-10-24T08:04:30.304Z,83.22
2022-10-24T08:06:57.830Z,83.24
2022-10-24T08:09:26.480Z,83.33
2022-10-24T08:11:55.269Z,82.42
2022-10-24T08:14:22.705Z,82.54
2022-10-24T08:16:50.114Z,81.70
2022-10-24T08:19:17.559Z,82.07
2022-10-24T08:21:44.998Z,82.08
2022-10-24T08:24:12.401Z,82.32
2022-10-24T08:26:41.210Z,82.26
2022-10-24T08:29:11.405Z,82.48
2022-10-24T08:31:39.332Z,82.32
2022-10-24T08:34:07.111Z,81.98
2022-10-24T08:36:36.386Z,82.30
2022-10-24T08:39:04.942Z,81.16
2022-10-24T08:41:36.812Z,81.33
2022-10-24T08:44:10.724Z,80.53
2022-10-24T08:46:48.939Z,80.89
2022-10-24T08:49:25.314Z,81.17
2022-10-24T08:51:58.414Z,80.08
2022-10-24T08:54:31.419Z,80.04
2022-10-24T08:56:59.949Z,79.84
2022-10-24T08:59:30.386Z,79.73
2022-10-24T09:02:04.493Z,78.14
2022-10-24T09:04:40.458Z,78.91
2022-10-24T09:07:14.914Z,78.30
2022-10-24T09:09:47.737Z,78.89
2022-10-24T09:12:17.165Z,78.31
2022-10-24T09:14:47.239Z,76.18
2022-10-24T09:17:21.008Z,76.36
2022-10-24T09:19:53.943Z,76.93
2022-10-24T09:22:22.782Z,77.61
2022-10-24T09:24:55.210Z,76.08
2022-10-24T09:27:25.465Z,76.30
2022-10-24T09:29:53.713Z,77.29
2022-10-24T09:32:26.654Z,76.47
2022-10-24T09:34:55.132Z,75.66
2022-10-24T09:37:44.262Z,75.67
2022-10-24T09:40:19.427Z,74.96
2022-10-24T09:42:55.305Z,75.48
2022-10-24T09:45:38.841Z,73.48
2022-10-24T09:48:18.588Z,74.20
2022-10-24T09:50:49.525Z,74.33
2022-10-24T09:53:25.657Z,74.02
2022-10-24T09:55:55.497Z,74.80
2022-10-24T09:58:29.759Z,74.66
2022-10-24T10:00:59.738Z,73.76
2022-10-24T10:03:29.196Z,75.30
2022-10-24T10:05:58.598Z,73.02
2022-10-24T10:08:29.597Z,74.94
2022-10-24T10:11:03.413Z,73.74
2022-10-24T10:13:37.493Z,72.28
2022-10-24T10:16:07.275Z,72.42
2022-10-24T10:18:45.576Z,73.44
2022-10-24T10:21:15.671Z,71.75
2022-10-24T10:23:45.791Z,72.82
2022-10-24T10:26:22.763Z,73.47
2022-10-24T10:28:59.620Z,73.17
2022-10-24T10:31:35.444Z,72.94
2022-10-24T10:34:15.030Z,73.47
2022-10-24T10:36:58.739Z,72.68
2022-10-24T10:39:45.040Z,73.04
2022-10-24T10:42:18.213Z,71.39
2022-10-24T10:45:02.063Z,71.60
2022-10-24T10:47:37.176Z,70.77
2022-10-24T10:50:25.807Z,70.04
2022-10-24T10:52:59.348Z,70.84
2022-10-24T10:55:36.006Z,71.25
2022-10-24T10:58:14.867Z,72.05
2022-10-24T11:00:50.260Z,70.31
2022-10-24T11:03:31.892Z,70.52
2022-10-24T11:06:14.158Z,70.92
2022-10-24T11:09:04.389Z,71.64
2022-10-24T11:11:35.150Z,71.38
2022-10-24T11:14:22.794Z,71.58
2022-10-24T11:16:51.796Z,72.27
2022-10-24T11:19:26.704Z,71.43
2022-10-24T11:21:58.035Z,72.43
2022-10-24T11:24:26.208Z,72.51
2022-10-24T11:27:00.798Z,72.13
2022-10-24T11:29:35.075Z,73.54
2022-10-24T11:32:10.188Z,71.75
2022-10-24T11:34:44.784Z,72.75
2022-10-24T11:37:18.420Z,72.86
2022-10-24T11:39:53.517Z,71.96
2022-10-24T11:42:28.207Z,71.99
2022-10-24T11:45:01.110Z,73.26
2022-10-24T11:47:51.006Z,72.23
2022-10-24T11:50:26.643Z,73.13
2022-10-24T11:52:59.445Z,72.79
2022-10-24T11:55:37.212Z,72.31
2022-10-24T11:58:09.540Z,72.45
2022-10-24T12:00:55.360Z,73.15
2022-10-24T12:03:45.793Z,73.19
2022-10-24T12:06:44.394Z,72.05
2022-10-24T12:09:44.229Z,72.60
2022-10-24T12:12:24.234Z,74.04
2022-10-24T12:15:11.544Z,74.47
2022-10-24T12:17:53.321Z,74.16
2022-10-24T12:20:22.954Z,73.54
2022-10-24T12:22:51.448Z,73.74
2022-10-24T12:25:23.309Z,73.69
2022-10-24T12:27:57.292Z,73.95
2022-10-24T12:30:27.185Z,74.13
2022-10-24T12:32:58.336Z,74.70
2022-10-24T12:35:52.791Z,74.03
2022-10-24T12:39:08.068Z,74.77
2022-10-24T12:41:43.457Z,74.47
2022-10-24T12:44:50.812Z,73.87
2022-10-24T12:47:28.303Z,73.59
2022-10-24T12:49:56.168Z,74.96
2022-10-24T12:52:59.627Z,75.29
2022-10-24T12:55:52.432Z,75.63
2022-10-24T12:58:25.058Z,75.82
2022-10-24T13:00:58.989Z,75.78
2022-10-24T13:03:45.718Z,76.09
2022-10-24T13:06:22.487Z,76.23
2022-10-24T13:09:03.711Z,75.23
2022-10-24T13:11:46.200Z,75.15
2022-10-24T13:14:55.912Z,76.18
2022-10-24T13:17:37.833Z,75.30
2022-10-24T13:20:19.681Z,76.53
2022-10-24T13:22:50.661Z,76.68
2022-10-24T13:25:33.717Z,76.34
2022-10-24T13:28:40.250Z,77.28
2022-10-24T13:31:39.840Z,78.28
2022-10-24T13:34:18.838Z,81.20
2022-10-24T13:36:48.930Z,81.86
2022-10-24T13:39:20.056Z,82.51
2022-10-24T13:41:50.207Z,83.05
2022-10-24T13:44:25.615Z,83.72
2022-10-24T13:46:56.496Z,83.00
2022-10-24T13:49:31.306Z,83.37
2022-10-24T13:52:03.880Z,83.36
2022-10-24T13:54:35.690Z,83.90
2022-10-24T13:57:03.195Z,83.72
2022-10-24T13:59:32.585Z,84.69
2022-10-24T14:02:03.654Z,83.77
2022-10-24T14:04:34.960Z,83.40
2022-10-24T14:12:09.239Z,83.47
2022-10-24T14:14:40.952Z,83.44
2022-10-24T14:17:22.965Z,82.29
2022-10-24T14:19:55.375Z,81.84
2022-10-24T14:22:25.348Z,82.09
2022-10-24T14:24:52.977Z,82.51
2022-10-24T14:27:21.446Z,82.83
2022-10-24T14:29:59.012Z,81.78
2022-10-24T14:32:27.948Z,81.00
2022-10-24T14:34:58.529Z,79.17
2022-10-24T14:37:30.322Z,79.28
2022-10-24T14:39:58.511Z,78.45
2022-10-24T14:42:26.659Z,78.21
2022-10-24T14:44:58.541Z,78.55
2022-10-24T14:47:30.619Z,78.31
2022-10-24T14:49:59.677Z,78.45
2022-10-24T14:52:32.056Z,78.27
2022-10-24T14:55:02.983Z,78.19
2022-10-24T14:57:33.220Z,78.68
2022-10-24T15:00:07.096Z,78.03
2022-10-24T15:02:42.087Z,78.03
2022-10-24T15:05:30.464Z,79.01
2022-10-24T15:08:20.998Z,78.44
2022-10-24T15:10:49.495Z,78.06
2022-10-24T15:13:20.953Z,77.65
2022-10-24T15:15:54.896Z,78.43
2022-10-24T15:18:25.666Z,77.96
2022-10-24T15:21:00.110Z,77.83
2022-10-24T15:23:30.528Z,78.21
2022-10-24T15:26:03.407Z,78.92
2022-10-24T15:28:47.912Z,78.44
2022-10-24T15:31:17.491Z,79.24
2022-10-24T15:33:45.590Z,79.29
2022-10-24T15:36:22.303Z,79.50
2022-10-24T15:38:49.873Z,80.04
2022-10-24T15:41:17.361Z,80.71
2022-10-24T15:43:44.776Z,80.97
2022-10-24T15:46:12.162Z,81.28
2022-10-24T15:48:39.855Z,81.44
2022-10-24T15:51:07.446Z,81.82
2022-10-24T15:53:36.183Z,81.99
2022-10-24T15:56:03.566Z,82.17
2022-10-24T15:58:30.955Z,82.18
2022-10-24T16:00:59.988Z,82.32
2022-10-24T16:03:27.637Z,82.79
2022-10-24T16:05:58.051Z,82.67
2022-10-24T16:08:25.459Z,82.77
2022-10-24T16:10:54.360Z,83.25
2022-10-24T16:13:23.214Z,83.52
2022-10-24T16:15:51.060Z,83.79
2022-10-24T16:18:18.536Z,83.87
2022-10-24T16:20:46.164Z,84.34
2022-10-24T16:23:16.725Z,84.51
2022-10-24T16:25:44.579Z,84.41
2022-10-24T16:28:13.329Z,84.53
2022-10-24T16:30:41.889Z,85.22
2022-10-24T16:33:09.522Z,84.86
2022-10-24T16:35:39.199Z,85.38
2022-10-24T16:38:09.394Z,86.00
2022-10-24T16:43:08.707Z,86.63
2022-10-24T16:45:37.465Z,87.00
2022-10-24T16:48:05.334Z,87.28
2022-10-24T16:50:32.927Z,87.94
2022-10-24T16:53:02.789Z,87.44
2022-10-24T16:55:31.754Z,87.64
2022-10-24T16:57:59.794Z,87.80
2022-10-24T17:00:27.739Z,88.47
2022-10-24T17:02:57.933Z,88.76
2022-10-24T17:05:27.941Z,88.75
2022-10-24T17:07:56.069Z,88.96
2022-10-24T17:10:24.933Z,88.81
2022-10-24T17:12:53.575Z,88.98
2022-10-24T17:15:22.467Z,89.21
2022-10-24T17:17:50.565Z,89.30
2022-10-24T17:20:19.463Z,89.76
2022-10-24T17:22:47.654Z,90.00
2022-10-24T17:25:20.342Z,90.83
2022-10-24T17:27:48.572Z,91.37
2022-10-24T17:30:19.913Z,91.47
2022-10-24T17:32:47.911Z,91.31
2022-10-24T17:35:18.082Z,91.50
2022-10-24T17:37:57.114Z,91.61
2022-10-24T17:40:28.923Z,92.01
2022-10-24T17:42:57.130Z,92.02
2022-10-24T17:45:25.478Z,92.01
2022-10-24T17:47:53.067Z,92.00
2022-10-24T17:50:20.514Z,91.81
2022-10-24T17:52:51.177Z,91.63
2022-10-24T17:55:41.027Z,91.67
2022-10-24T17:58:09.199Z,91.91
2022-10-24T18:00:36.817Z,91.88
2022-10-24T18:03:05.128Z,91.86
2022-10-24T18:05:37.327Z,91.70
2022-10-24T18:08:06.850Z,91.43
2022-10-24T18:10:34.787Z,91.55
2022-10-24T18:13:02.216Z,91.66
2022-10-24T18:15:29.805Z,91.61
2022-10-24T18:17:57.287Z,91.71
2022-10-24T18:20:24.939Z,92.09
2022-10-24T18:22:52.636Z,91.94
2022-10-24T18:25:23.127Z,91.75
2022-10-24T18:27:51.187Z,91.54
2022-10-24T18:30:19.988Z,91.77
2022-10-24T18:32:48.454Z,91.47
2022-10-24T18:35:16.311Z,92.04
2022-10-24T18:37:43.795Z,91.79
2022-10-24T18:40:12.493Z,91.66
2022-10-24T18:42:48.665Z,91.58
2022-10-24T18:45:20.649Z,91.46
2022-10-24T18:47:48.879Z,91.67
2022-10-24T18:50:18.296Z,91.79
2022-10-24T18:52:51.159Z,91.34
2022-10-24T18:55:20.683Z,91.43
2022-10-24T18:57:50.587Z,90.77
2022-10-24T19:00:20.441Z,90.80
2022-10-24T19:02:54.684Z,90.75
2022-10-24T19:05:23.930Z,90.70
2022-10-24T19:07:52.654Z,90.13
2022-10-24T19:10:24.006Z,90.30
2022-10-24T19:12:54.185Z,90.42
2022-10-24T19:15:22.566Z,89.91
2022-10-24T19:17:51.754Z,89.85
2022-10-24T19:20:21.316Z,89.86
2022-10-24T19:22:49.310Z,90.42
2022-10-24T19:25:18.003Z,90.54
2022-10-24T19:27:45.886Z,90.77
2022-10-24T19:30:15.106Z,90.47
2022-10-24T19:32:42.571Z,90.64
2022-10-24T19:35:10.046Z,90.47
2022-10-24T19:37:37.987Z,90.15
2022-10-24T19:40:06.472Z,90.60
2022-10-24T19:42:34.457Z,90.37
2022-10-24T19:45:02.235Z,90.90
2022-10-24T19:47:31.001Z,90.59
2022-10-24T19:49:58.414Z,90.15
2022-10-24T19:52:25.851Z,90.46
2022-10-24T19:54:53.267Z,90.62
2022-10-24T19:57:20.679Z,90.99
2022-10-24T19:59:48.125Z,90.51
2022-10-24T20:02:16.763Z,90.66
2022-10-24T20:04:48.925Z,90.54
2022-10-24T20:07:17.564Z,90.49
2022-10-24T20:09:45.256Z,90.58
2022-10-24T20:12:13.270Z,90.20
2022-10-24T20:14:40.680Z,89.97
2022-10-24T20:17:08.233Z,90.04
2022-10-24T20:19:35.641Z,89.95
2022-10-24T20:22:04.444Z,90.00
2022-10-24T20:24:33.380Z,89.80
2022-10-24T20:27:00.912Z,89.64
2022-10-24T20:29:28.383Z,89.04
2022-10-24T20:31:55.956Z,89.25
2022-10-24T20:34:23.425Z,88.84
2022-10-24T20:36:50.861Z,88.93
2022-10-24T20:39:20.786Z,88.30
2022-10-24T20:41:51.760Z,88.02
2022-10-24T20:44:21.687Z,88.07
2022-10-24T20:46:49.131Z,87.98
2022-10-24T20:49:16.563Z,88.26
2022-10-24T20:51:44.314Z,88.05
2022-10-24T20:54:12.125Z,88.13
2022-10-24T20:56:42.609Z,88.25
2022-10-24T20:59:12.828Z,88.45
2022-10-24T21:01:40.633Z,88.69
2022-10-24T21:04:08.169Z,88.43
2022-10-24T21:06:35.600Z,88.65
2022-10-24T21:09:05.366Z,88.38
2022-10-24T21:11:34.109Z,88.24
2022-10-24T21:14:04.752Z,87.87
2022-10-24T21:16:32.690Z,87.94
2022-10-24T21:19:00.459Z,87.95
2022-10-24T21:21:28.814Z,88.25
2022-10-24T21:24:02.401Z,87.83
2022-10-24T21:26:33.755Z,87.59
2022-10-24T21:29:08.905Z,88.29
2022-10-24T21:31:43.611Z,88.44
2022-10-24T21:34:11.143Z,88.55
2022-10-24T21:36:38.551Z,88.19
2022-10-24T21:39:05.974Z,87.61
2022-10-24T21:41:34.609Z,87.67
2022-10-24T21:44:02.047Z,87.66
2022-10-24T21:46:29.994Z,88.09
2022-10-24T21:48:58.790Z,87.90
2022-10-24T21:51:28.764Z,88.30
2022-10-24T21:53:58.274Z,88.61
2022-10-24T21:56:27.806Z,88.58
2022-10-24T21:58:59.595Z,88.78
2022-10-24T22:01:29.334Z,88.30
2022-10-24T22:03:59.571Z,88.95
2022-10-24T22:06:28.458Z,88.81
2022-10-24T22:08:56.227Z,88.82
2022-10-24T22:11:25.962Z,88.89
2022-10-24T22:13:54.073Z,89.23
2022-10-24T22:16:23.669Z,89.08
2022-10-24T22:18:51.853Z,89.63
2022-10-24T22:21:27.463Z,89.99
2022-10-24T22:23:56.511Z,89.80
2022-10-24T22:26:24.378Z,90.53
2022-10-24T22:28:51.836Z,90.49
2022-10-24T22:31:19.904Z,90.88
2022-10-24T22:33:47.643Z,91.10
2022-10-24T22:36:23.219Z,91.30
2022-10-24T22:38:54.872Z,91.66
2022-10-24T22:41:23.768Z,91.63
2022-10-24T22:43:51.711Z,91.55
2022-10-24T22:46:36.195Z,91.20
2022-10-24T22:49:08.942Z,91.67
2022-10-24T22:51:37.103Z,91.94
2022-10-24T22:54:06.696Z,91.99
2022-10-24T22:56:36.626Z,92.46
2022-10-24T22:59:04.666Z,92.07
2022-10-24T23:01:42.826Z,92.43
2022-10-24T23:04:24.696Z,92.78
2022-10-24T23:06:56.789Z,93.10
2022-10-24T23:09:25.607Z,93.35
2022-10-24T23:11:53.968Z,93.93
2022-10-24T23:14:21.926Z,94.03
2022-10-24T23:16:55.718Z,94.44
2022-10-24T23:19:25.166Z,94.79
2022-10-24T23:21:57.169Z,95.12
2022-10-24T23:24:26.316Z,94.78
2022-10-24T23:27:14.299Z,94.74
2022-10-24T23:29:43.377Z,94.82
2022-10-24T23:32:16.940Z,95.07
2022-10-24T23:34:44.857Z,95.17
2022-10-24T23:37:18.850Z,95.33
2022-10-24T23:39:48.287Z,95.25
2022-10-24T23:42:16.273Z,94.73
2022-10-24T23:44:44.291Z,94.81
2022-10-24T23:47:21.427Z,94.74
2022-10-24T23:49:57.313Z,94.96
2022-10-24T23:52:30.040Z,94.89
2022-10-24T23:54:59.346Z,94.66
2022-10-24T23:57:27.320Z,94.59
2022-10-24T23:59:54.758Z,94.62
